Time;durP1;ratioP1;P1;durP2;ratioP2;P2;SDS_P1;SDS_P2;PMS_P1;PMS_P2;Temp;Humidity;BMP_temperature;BMP_pressure;BME280_temperature;BME280_humidity;BME280_pressure;Samples;Min_cycle;Max_cycle;Signal;HPM_P1;HPM_P2
2022/03/06 00:00:50;;;;;;;25.67;16.33;;;;;;;7.41;46.49;102230.59;5101808;28;20074;-60
2022/03/06 00:03:18;;;;;;;28.50;16.63;;;;;;;7.34;46.49;102224.22;5100901;28;20242;-59
2022/03/06 00:05:46;;;;;;;26.20;15.57;;;;;;;7.37;46.43;102229.25;5104508;28;20466;-60
2022/03/06 00:08:14;;;;;;;27.15;16.35;;;;;;;7.32;46.21;102232.41;5091413;28;20102;-60
2022/03/06 00:10:43;;;;;;;25.35;16.67;;;;;;;7.32;46.38;102237.75;5103533;28;20121;-59
2022/03/06 00:13:13;;;;;;;30.33;16.88;;;;;;;7.31;46.80;102236.09;5103925;28;20047;-60
2022/03/06 00:15:41;;;;;;;30.23;15.43;;;;;;;7.30;46.79;102233.59;5102069;28;20068;-61
2022/03/06 00:18:09;;;;;;;30.08;16.98;;;;;;;7.27;46.56;102234.75;5094754;28;20048;-60
2022/03/06 00:20:36;;;;;;;24.30;14.07;;;;;;;7.27;46.49;102240.09;5101350;28;20044;-60
2022/03/06 00:23:05;;;;;;;29.83;16.25;;;;;;;7.26;46.55;102238.44;5098850;28;20063;-59
2022/03/06 00:25:33;;;;;;;28.83;15.68;;;;;;;7.26;46.52;102241.09;5103378;28;20075;-59
2022/03/06 00:28:03;;;;;;;26.98;15.57;;;;;;;7.27;46.62;102239.25;5102391;28;20056;-60
2022/03/06 00:30:30;;;;;;;26.38;16.27;;;;;;;7.23;46.44;102225.41;5093940;28;20104;-60
2022/03/06 00:32:58;;;;;;;27.25;15.55;;;;;;;7.23;45.96;102237.94;5103315;28;20044;-60
2022/03/06 00:35:28;;;;;;;25.52;15.40;;;;;;;7.24;46.63;102240.44;5103583;28;20048;-60
2022/03/06 00:37:57;;;;;;;23.17;15.32;;;;;;;7.23;46.33;102244.09;5098387;28;20268;-60
2022/03/06 00:40:25;;;;;;;26.23;15.90;;;;;;;7.22;46.40;102242.44;5103057;28;20233;-60
2022/03/06 00:42:53;;;;;;;25.55;15.73;;;;;;;7.24;46.23;102247.63;5103301;28;20043;-61
2022/03/06 00:45:22;;;;;;;28.02;14.98;;;;;;;7.23;46.03;102251.28;5093557;28;20040;-60
2022/03/06 00:47:50;;;;;;;27.00;15.45;;;;;;;7.21;46.39;102254.13;5103164;28;20044;-60
2022/03/06 00:50:18;;;;;;;26.80;15.43;;;;;;;7.22;46.70;102258.47;5103355;28;20077;-60
2022/03/06 00:52:45;;;;;;;25.65;15.13;;;;;;;7.21;46.24;102261.31;5095762;28;20192;-60
2022/03/06 00:55:13;;;;;;;27.70;16.08;;;;;;;7.11;46.37;102245.44;5102879;28;20095;-59
2022/03/06 00:57:41;;;;;;;24.85;14.63;;;;;;;7.18;46.13;102263.31;5101945;28;20508;-59
2022/03/06 01:00:10;;;;;;;23.20;14.90;;;;;;;7.16;46.52;102259.97;5102996;28;20059;-60
2022/03/06 01:02:39;;;;;;;26.02;15.52;;;;;;;7.18;46.12;102266.00;5102976;28;20082;-59
2022/03/06 01:05:07;;;;;;;24.90;14.77;;;;;;;7.16;46.33;102259.13;5092041;28;20493;-60
2022/03/06 01:07:35;;;;;;;27.73;16.48;;;;;;;7.14;46.06;102263.81;5098967;28;20072;-60
2022/03/06 01:10:04;;;;;;;27.00;15.75;;;;;;;7.12;46.47;102265.81;5096880;28;20072;-61
2022/03/06 01:12:32;;;;;;;26.20;14.73;;;;;;;7.10;46.30;102270.50;5102850;28;20051;-59
2022/03/06 01:14:59;;;;;;;26.08;15.73;;;;;;;7.08;46.37;102275.16;5099146;28;20083;-60
2022/03/06 01:17:27;;;;;;;29.52;15.82;;;;;;;7.03;46.28;102267.63;5095916;28;20060;-59
2022/03/06 01:19:56;;;;;;;29.42;16.17;;;;;;;6.98;46.37;102277.16;5095911;28;20094;-59
2022/03/06 01:22:24;;;;;;;25.88;16.35;;;;;;;6.95;46.03;102277.47;5091846;28;20040;-59
2022/03/06 01:24:51;;;;;;;27.02;15.63;;;;;;;6.95;46.58;102278.31;5101556;28;20047;-59
2022/03/06 01:27:19;;;;;;;24.88;15.40;;;;;;;6.94;46.40;102279.31;5099304;28;20055;-60
2022/03/06 01:29:47;;;;;;;26.20;15.48;;;;;;;6.95;46.41;102274.78;5101585;28;20115;-62
2022/03/06 01:32:14;;;;;;;24.10;13.85;;;;;;;6.93;46.35;102284.84;5102055;28;20104;-60
2022/03/06 01:34:42;;;;;;;26.25;15.68;;;;;;;6.85;46.45;102278.47;5094924;28;20055;-60
2022/03/06 01:37:11;;;;;;;30.58;18.50;;;;;;;6.82;46.64;102286.81;5102502;28;20055;-60
2022/03/06 01:39:39;;;;;;;26.70;16.33;;;;;;;6.81;46.43;102284.31;5096082;28;20091;-59
2022/03/06 01:42:07;;;;;;;28.88;16.30;;;;;;;6.79;46.80;102289.81;5102511;28;20047;-60
2022/03/06 01:44:35;;;;;;;28.13;16.33;;;;;;;6.76;46.75;102286.63;5102351;28;20056;-60
2022/03/06 01:47:03;;;;;;;29.02;15.73;;;;;;;6.81;46.60;102292.31;5096203;28;20350;-60
2022/03/06 01:49:31;;;;;;;31.55;15.20;;;;;;;6.80;46.66;102293.31;5088707;28;20052;-60
2022/03/06 01:51:58;;;;;;;27.88;16.08;;;;;;;6.77;46.38;102288.31;5089202;28;20048;-60
2022/03/06 01:54:27;;;;;;;31.00;17.02;;;;;;;6.73;46.60;102289.63;5100533;28;20179;-60
2022/03/06 01:56:55;;;;;;;29.05;15.95;;;;;;;6.72;46.47;102291.47;5096635;28;20051;-60
2022/03/06 01:59:24;;;;;;;25.25;15.38;;;;;;;6.70;46.54;102287.28;5101925;28;20347;-60
2022/03/06 02:01:52;;;;;;;26.92;16.20;;;;;;;6.68;46.57;102290.09;5101932;28;20086;-60
2022/03/06 02:04:20;;;;;;;25.95;15.32;;;;;;;6.67;46.57;102290.25;5091617;28;20447;-60
2022/03/06 02:06:47;;;;;;;29.27;16.48;;;;;;;6.64;46.53;102285.25;5098154;28;20492;-60
2022/03/06 02:09:15;;;;;;;28.45;16.15;;;;;;;6.60;46.62;102289.22;5100872;28;20083;-61
2022/03/06 02:12:18;;;;;;;25.55;15.50;;;;;;;6.63;46.52;102295.09;5102023;28;20453;-60
2022/03/06 02:14:32;;;;;;;29.17;16.67;;;;;;;6.62;46.39;102296.09;5094943;28;20098;-61
2022/03/06 02:17:00;;;;;;;26.27;15.63;;;;;;;6.60;46.44;102299.91;5085796;28;20060;-60
2022/03/06 02:19:28;;;;;;;28.48;16.98;;;;;;;6.59;46.63;102292.91;5086370;28;20075;-61
2022/03/06 02:21:57;;;;;;;27.60;16.33;;;;;;;6.58;46.64;102297.41;5102024;28;20492;-61
2022/03/06 02:24:24;;;;;;;27.02;16.00;;;;;;;6.57;46.38;102290.38;5096737;28;20075;-59
2022/03/06 02:26:52;;;;;;;31.73;17.38;;;;;;;6.56;46.79;102295.88;5102167;28;20055;-60
2022/03/06 02:29:20;;;;;;;30.05;18.02;;;;;;;6.56;46.64;102299.41;5101311;28;20056;-60
2022/03/06 02:31:48;;;;;;;30.60;16.58;;;;;;;6.53;46.46;102297.88;5101268;28;20076;-60
2022/03/06 02:34:15;;;;;;;26.00;15.35;;;;;;;6.53;46.45;102297.03;5098213;28;20406;-61
2022/03/06 02:36:43;;;;;;;26.90;15.85;;;;;;;6.53;46.44;102295.22;5106043;28;20248;-60
2022/03/06 02:39:12;;;;;;;29.23;16.77;;;;;;;6.51;46.28;102305.22;5103088;28;20072;-60
2022/03/06 02:41:40;;;;;;;27.38;15.63;;;;;;;6.51;46.37;102310.56;5105843;28;20112;-59
2022/03/06 02:44:07;;;;;;;28.50;15.85;;;;;;;6.52;46.50;102306.91;5104501;28;20070;-60
2022/03/06 02:46:35;;;;;;;25.52;15.43;;;;;;;6.52;46.45;102303.38;5105473;28;20568;-60
2022/03/06 02:49:03;;;;;;;27.10;15.85;;;;;;;6.51;46.53;102305.22;5105186;28;20052;-60
2022/03/06 02:51:31;;;;;;;26.05;15.20;;;;;;;6.51;46.45;102302.53;5095676;28;20075;-59
2022/03/06 02:53:58;;;;;;;24.45;15.30;;;;;;;6.50;46.59;102305.38;5101338;28;20499;-58
2022/03/06 02:56:28;;;;;;;28.45;16.25;;;;;;;6.46;46.65;102309.38;5097977;28;20053;-60
2022/03/06 02:58:56;;;;;;;27.35;15.40;;;;;;;6.41;46.88;102312.50;5103057;28;20115;-60
2022/03/06 03:01:24;;;;;;;25.17;14.73;;;;;;;6.39;47.10;102300.31;5100359;28;20082;-59
2022/03/06 03:03:52;;;;;;;27.70;15.63;;;;;;;6.34;46.92;102308.78;5103390;28;20050;-61
2022/03/06 03:06:20;;;;;;;25.77;15.65;;;;;;;6.39;47.12;102311.00;5094887;28;20041;-60
2022/03/06 03:08:48;;;;;;;25.95;14.65;;;;;;;6.39;46.70;102313.66;5097056;28;20072;-60
2022/03/06 03:11:16;;;;;;;24.30;14.93;;;;;;;6.24;46.95;102293.88;5097937;28;20110;-60
2022/03/06 03:13:45;;;;;;;26.15;14.35;;;;;;;6.28;46.54;102309.44;5105137;28;20090;-59
2022/03/06 03:16:13;;;;;;;26.08;16.40;;;;;;;6.32;46.56;102318.78;5105425;28;20044;-60
2022/03/06 03:18:41;;;;;;;27.92;14.45;;;;;;;6.20;47.00;102302.22;5091249;28;20052;-60
2022/03/06 03:21:08;;;;;;;24.30;14.98;;;;;;;6.19;46.72;102294.34;5105052;28;20078;-61
2022/03/06 03:23:36;;;;;;;29.88;15.50;;;;;;;6.30;47.02;102312.78;5101977;28;20572;-59
2022/03/06 03:26:04;;;;;;;27.90;15.00;;;;;;;6.27;46.71;102307.75;5104997;28;20080;-59
2022/03/06 03:28:32;;;;;;;30.55;16.20;;;;;;;6.25;47.11;102317.75;5104707;28;20075;-59
2022/03/06 03:31:02;;;;;;;25.58;15.15;;;;;;;6.26;47.19;102316.75;5099440;28;20552;-60
2022/03/06 03:33:29;;;;;;;28.13;16.20;;;;;;;6.21;47.13;102321.72;5104511;28;20091;-60
2022/03/06 03:35:57;;;;;;;25.83;14.98;;;;;;;6.19;47.43;102323.72;5105151;28;20075;-59
2022/03/06 03:38:25;;;;;;;26.10;15.30;;;;;;;6.18;46.89;102316.72;5096218;28;20090;-60
2022/03/06 03:40:53;;;;;;;27.42;16.25;;;;;;;6.16;47.38;102326.69;5101529;28;20067;-60
2022/03/06 03:43:20;;;;;;;26.55;15.07;;;;;;;6.14;47.58;102318.84;5094306;28;20520;-60
2022/03/06 03:45:48;;;;;;;24.20;14.45;;;;;;;6.12;47.41;102318.16;5103544;28;20106;-60
2022/03/06 03:48:22;;;;;;;25.20;15.75;;;;;;;6.11;47.27;102318.31;5102869;28;20044;-61
2022/03/06 03:50:49;;;;;;;29.13;16.20;;;;;;;6.12;47.33;102325.34;5104675;28;20382;-60
2022/03/06 03:53:17;;;;;;;23.95;13.93;;;;;;;6.08;47.37;102322.16;5097844;28;20055;-60
2022/03/06 03:55:45;;;;;;;30.52;15.02;;;;;;;6.09;47.15;102325.66;5104345;28;20090;-59
2022/03/06 03:58:13;;;;;;;24.52;14.57;;;;;;;6.10;47.75;102324.66;5097823;28;20052;-60
2022/03/06 04:00:41;;;;;;;29.98;15.80;;;;;;;6.07;47.39;102331.16;5104415;28;20104;-59
2022/03/06 04:03:09;;;;;;;25.08;15.35;;;;;;;6.01;47.56;102314.91;5097843;28;20101;-61
2022/03/06 04:05:39;;;;;;;22.25;13.68;;;;;;;6.04;47.67;102325.28;5104471;28;20082;-61
2022/03/06 04:08:07;;;;;;;25.67;14.52;;;;;;;6.02;47.40;102330.78;5097434;28;20076;-59
2022/03/06 04:10:35;;;;;;;25.48;15.50;;;;;;;5.98;47.96;102326.75;5090716;28;20075;-59
2022/03/06 04:13:03;;;;;;;24.15;14.38;;;;;;;5.97;47.55;102333.06;5091077;28;20076;-59
2022/03/06 04:15:30;;;;;;;25.75;14.52;;;;;;;5.99;47.49;102338.25;5104099;28;20056;-59
2022/03/06 04:17:58;;;;;;;23.85;13.98;;;;;;;5.99;47.35;102340.91;5093671;28;20094;-59
2022/03/06 04:20:26;;;;;;;23.92;14.50;;;;;;;5.91;47.83;102327.53;5097910;28;20083;-60
2022/03/06 04:22:55;;;;;;;22.75;14.13;;;;;;;6.00;47.32;102339.94;5103464;28;20048;-60
2022/03/06 04:25:24;;;;;;;22.13;13.45;;;;;;;5.97;47.53;102350.91;5098180;28;20055;-59
2022/03/06 04:27:51;;;;;;;24.42;14.52;;;;;;;5.94;47.60;102351.22;5103529;28;20150;-60
2022/03/06 04:30:20;;;;;;;20.88;13.68;;;;;;;5.94;48.09;102352.06;5103636;28;20056;-59
2022/03/06 04:32:47;;;;;;;27.83;15.23;;;;;;;5.94;48.02;102361.91;5090670;28;20083;-60
2022/03/06 04:35:15;;;;;;;25.42;13.88;;;;;;;5.91;47.57;102360.38;5097111;28;20041;-60
2022/03/06 04:37:43;;;;;;;25.92;14.40;;;;;;;5.93;47.91;102358.38;5100015;28;20151;-60
2022/03/06 04:40:13;;;;;;;24.55;13.93;;;;;;;5.94;47.78;102368.06;5102653;28;20072;-60
2022/03/06 04:42:41;;;;;;;21.58;13.52;;;;;;;5.94;47.64;102367.22;5100386;28;20086;-60
2022/03/06 04:45:10;;;;;;;23.77;13.40;;;;;;;5.92;47.62;102370.06;5094970;28;20052;-60
2022/03/06 04:47:38;;;;;;;22.65;13.30;;;;;;;5.90;47.68;102373.88;5098107;28;20078;-60
2022/03/06 04:50:07;;;;;;;20.27;12.88;;;;;;;5.86;47.81;102373.31;5095246;28;20043;-60
2022/03/06 04:52:34;;;;;;;23.13;14.00;;;;;;;5.87;47.39;102375.81;5096832;28;20063;-61
2022/03/06 04:55:02;;;;;;;22.88;13.18;;;;;;;5.85;48.10;102374.28;5102423;28;20079;-60
2022/03/06 04:57:31;;;;;;;22.25;13.55;;;;;;;5.86;47.82;102378.63;5102201;28;20063;-60
2022/03/06 04:59:59;;;;;;;22.15;12.95;;;;;;;5.83;47.54;102379.78;5103081;28;20079;-59
2022/03/06 05:02:27;;;;;;;22.83;13.88;;;;;;;5.80;48.14;102395.25;5093174;28;20082;-60
2022/03/06 05:04:54;;;;;;;21.65;13.73;;;;;;;5.78;47.88;102389.25;5103104;28;20076;-59
2022/03/06 05:07:22;;;;;;;21.05;13.30;;;;;;;5.78;47.49;102394.56;5096051;28;20532;-60
2022/03/06 05:09:50;;;;;;;25.50;14.38;;;;;;;5.77;47.57;102401.75;5095543;28;20048;-60
2022/03/06 05:12:18;;;;;;;23.45;12.55;;;;;;;5.77;47.79;102411.56;5103145;28;20072;-61
2022/03/06 05:14:47;;;;;;;21.42;12.70;;;;;;;5.77;48.24;102415.06;5102723;28;20044;-60
2022/03/06 05:17:16;;;;;;;23.08;14.00;;;;;;;5.74;47.63;102407.38;5087445;28;20072;-59
2022/03/06 05:19:43;;;;;;;25.75;13.68;;;;;;;5.73;47.84;102416.38;5097950;28;20178;-60
2022/03/06 05:22:11;;;;;;;20.40;12.48;;;;;;;5.72;47.86;102408.53;5097568;28;20071;-60
2022/03/06 05:24:39;;;;;;;24.13;13.10;;;;;;;5.72;48.20;102413.84;5102241;28;20067;-61
2022/03/06 05:27:06;;;;;;;19.85;12.98;;;;;;;5.67;47.95;102414.31;5102942;28;20161;-59
2022/03/06 05:29:34;;;;;;;26.30;13.50;;;;;;;5.64;48.01;102414.59;5099527;28;20579;-60
2022/03/06 05:32:04;;;;;;;20.92;13.48;;;;;;;5.64;48.41;102421.78;5102360;28;20094;-59
2022/03/06 05:34:32;;;;;;;18.73;12.07;;;;;;;5.62;47.90;102421.91;5100749;28;20076;-59
2022/03/06 05:37:00;;;;;;;20.95;12.75;;;;;;;5.61;48.39;102425.56;5102439;28;20453;-59
2022/03/06 05:39:27;;;;;;;18.73;12.45;;;;;;;5.60;48.30;102434.56;5098881;28;20075;-60
2022/03/06 05:41:55;;;;;;;22.88;13.52;;;;;;;5.59;48.27;102427.56;5093320;28;20048;-60
2022/03/06 05:44:24;;;;;;;18.40;11.57;;;;;;;5.55;48.47;102420.84;5102371;28;20048;-59
2022/03/06 05:46:53;;;;;;;18.63;12.35;;;;;;;5.60;48.47;102425.72;5102457;28;20056;-59
2022/03/06 05:49:22;;;;;;;20.60;13.32;;;;;;;5.43;48.42;102411.38;5096723;28;20083;-60
2022/03/06 05:51:50;;;;;;;22.42;12.40;;;;;;;5.57;48.56;102437.53;5089219;28;20098;-60
2022/03/06 05:54:17;;;;;;;20.88;12.52;;;;;;;5.58;48.45;102439.22;5100797;28;20551;-59
2022/03/06 05:56:45;;;;;;;21.27;12.18;;;;;;;5.56;47.83;102443.84;5096730;28;20048;-59
2022/03/06 05:59:13;;;;;;;19.73;12.07;;;;;;;5.56;48.43;102451.84;5101362;28;20079;-60
2022/03/06 06:01:41;;;;;;;21.63;13.75;;;;;;;5.56;47.94;102441.19;5095614;28;20143;-63
2022/03/06 06:04:09;;;;;;;20.98;13.73;;;;;;;5.51;47.76;102449.63;5101842;28;20139;-59
2022/03/06 06:06:38;;;;;;;18.65;12.57;;;;;;;5.52;48.03;102447.81;5101635;28;20084;-60
2022/03/06 06:09:05;;;;;;;19.23;12.70;;;;;;;5.53;47.71;102455.66;5087438;28;20056;-59
2022/03/06 06:11:33;;;;;;;17.10;11.27;;;;;;;5.48;48.28;102447.28;5102138;28;20048;-60
2022/03/06 06:14:01;;;;;;;20.77;12.63;;;;;;;5.51;47.96;102456.81;5101628;28;20055;-59
2022/03/06 06:16:29;;;;;;;16.88;12.15;;;;;;;5.52;48.29;102461.16;5095141;28;20059;-59
2022/03/06 06:18:57;;;;;;;19.40;12.20;;;;;;;5.51;48.30;102470.13;5091437;28;20051;-59
2022/03/06 06:21:25;;;;;;;19.30;12.20;;;;;;;5.48;48.35;102465.09;5095781;28;20075;-60
2022/03/06 06:23:54;;;;;;;20.40;11.63;;;;;;;5.46;48.39;102472.41;5101404;28;20059;-60
2022/03/06 06:26:24;;;;;;;20.65;12.10;;;;;;;5.45;48.01;102473.41;5097622;28;20308;-60
2022/03/06 06:28:55;;;;;;;17.65;11.90;;;;;;;5.46;48.37;102480.41;5101845;28;20251;-60
2022/03/06 06:31:24;;;;;;;17.88;12.02;;;;;;;5.46;47.86;102483.91;5090356;28;20052;-61
2022/03/06 06:33:52;;;;;;;20.10;12.85;;;;;;;5.39;48.71;102480.16;5101614;28;20062;-59
2022/03/06 06:36:20;;;;;;;18.48;11.45;;;;;;;5.38;48.48;102486.47;5102063;28;20051;-60
2022/03/06 06:38:47;;;;;;;16.30;11.40;;;;;;;5.41;48.40;102486.19;5100411;28;20165;-59
2022/03/06 06:41:17;;;;;;;22.63;12.68;;;;;;;5.38;48.41;102493.63;5092900;28;20052;-60
2022/03/06 06:43:44;;;;;;;18.75;12.07;;;;;;;5.35;47.87;102494.78;5100382;28;20106;-59
2022/03/06 06:46:12;;;;;;;18.27;12.30;;;;;;;5.35;48.25;102493.94;5088558;28;20036;-60
2022/03/06 06:48:40;;;;;;;19.52;12.15;;;;;;;5.32;48.01;102481.72;5101190;28;20511;-60
2022/03/06 06:51:09;;;;;;;15.50;10.38;;;;;;;5.26;48.50;102471.66;5093462;28;20079;-60
2022/03/06 06:53:37;;;;;;;20.17;12.40;;;;;;;5.35;48.11;102493.94;5095193;28;20051;-60
2022/03/06 06:56:06;;;;;;;20.10;12.48;;;;;;;5.28;48.78;102492.84;5098789;28;20079;-60
2022/03/06 06:58:35;;;;;;;18.40;13.05;;;;;;;5.24;48.23;102501.13;5096247;28;20063;-59
2022/03/06 07:01:02;;;;;;;19.00;12.40;;;;;;;5.24;48.72;102503.78;5100119;28;20051;-60
2022/03/06 07:03:30;;;;;;;20.13;12.43;;;;;;;5.26;48.48;102500.97;5096381;28;20062;-60
2022/03/06 07:05:59;;;;;;;16.63;12.18;;;;;;;5.28;48.66;102508.84;5101730;28;20058;-60
2022/03/06 07:08:26;;;;;;;20.00;12.30;;;;;;;5.26;48.87;102505.47;5096334;28;20060;-61
2022/03/06 07:10:54;;;;;;;18.80;12.25;;;;;;;5.21;48.76;102508.56;5093140;28;20068;-61
2022/03/06 07:13:22;;;;;;;18.55;12.38;;;;;;;5.20;48.85;102504.25;5097671;28;20072;-60
2022/03/06 07:15:51;;;;;;;17.65;11.85;;;;;;;5.20;48.84;102502.41;5101645;28;20632;-60
2022/03/06 07:18:19;;;;;;;20.80;12.07;;;;;;;5.18;48.28;102503.56;5093914;28;20134;-59
2022/03/06 07:20:46;;;;;;;21.40;11.73;;;;;;;5.23;48.41;102511.94;5102792;28;20123;-59
2022/03/06 07:23:14;;;;;;;19.75;12.43;;;;;;;5.19;48.37;102513.25;5096638;28;20043;-60
2022/03/06 07:25:42;;;;;;;19.45;12.45;;;;;;;5.19;48.30;102521.25;5103722;28;20044;-60
2022/03/06 07:28:10;;;;;;;17.83;12.20;;;;;;;5.19;48.70;102518.56;5103165;28;20055;-60
2022/03/06 07:30:38;;;;;;;17.67;11.63;;;;;;;5.21;49.02;102517.41;5099231;28;20061;-60
2022/03/06 07:33:07;;;;;;;16.70;11.27;;;;;;;5.21;48.81;102522.75;5102988;28;20079;-60
2022/03/06 07:35:35;;;;;;;17.77;12.50;;;;;;;5.19;48.33;102522.06;5104969;28;20067;-61
2022/03/06 07:38:03;;;;;;;19.52;12.00;;;;;;;5.18;48.54;102523.06;5096033;28;20087;-60
2022/03/06 07:40:31;;;;;;;17.92;11.93;;;;;;;5.17;48.06;102531.19;5104379;28;20473;-59
2022/03/06 07:42:59;;;;;;;17.30;12.02;;;;;;;5.13;48.65;102530.66;5104419;28;20090;-59
2022/03/06 07:45:27;;;;;;;16.98;11.00;;;;;;;5.12;48.44;102544.97;5103894;28;20055;-59
2022/03/06 07:47:54;;;;;;;20.25;12.10;;;;;;;5.12;48.41;102547.63;5090688;28;20126;-59
2022/03/06 07:50:24;;;;;;;18.02;12.25;;;;;;;5.09;48.76;102547.91;5104431;28;20107;-59
2022/03/06 07:52:51;;;;;;;16.65;11.70;;;;;;;5.07;48.46;102557.88;5092452;28;20052;-60
2022/03/06 07:55:19;;;;;;;22.33;12.13;;;;;;;5.00;48.85;102546.13;5097919;28;20044;-60
2022/03/06 07:57:47;;;;;;;18.80;12.77;;;;;;;5.03;48.53;102551.16;5104193;28;20040;-60
2022/03/06 08:00:15;;;;;;;18.65;11.77;;;;;;;5.03;48.74;102561.81;5091538;28;20108;-61
2022/03/06 08:02:43;;;;;;;17.90;12.25;;;;;;;5.00;48.97;102561.25;5103868;28;20072;-60
2022/03/06 08:05:11;;;;;;;18.67;12.77;;;;;;;4.88;49.34;102544.59;5103978;28;20112;-60
2022/03/06 08:07:40;;;;;;;16.45;11.50;;;;;;;5.03;48.80;102568.97;5099913;28;20079;-60
2022/03/06 08:10:09;;;;;;;17.98;11.05;;;;;;;5.04;49.15;102576.81;5103174;28;20067;-60
2022/03/06 08:12:37;;;;;;;15.65;11.05;;;;;;;5.02;48.66;102578.78;5104399;28;20044;-60
2022/03/06 08:15:05;;;;;;;18.70;11.85;;;;;;;4.97;49.35;102589.03;5090292;28;20529;-60
2022/03/06 08:17:33;;;;;;;18.00;12.05;;;;;;;4.93;48.90;102581.47;5096230;28;20072;-60
2022/03/06 08:20:01;;;;;;;18.60;11.95;;;;;;;4.91;48.68;102584.28;5100385;28;20086;-61
2022/03/06 08:22:29;;;;;;;16.05;11.10;;;;;;;4.90;49.54;102583.44;5102649;28;20052;-60
2022/03/06 08:24:58;;;;;;;15.05;10.75;;;;;;;4.96;48.53;102587.34;5088884;28;20072;-59
2022/03/06 08:27:26;;;;;;;22.60;12.15;;;;;;;4.96;49.06;102583.84;5096241;28;20082;-60
2022/03/06 08:29:53;;;;;;;16.15;10.98;;;;;;;4.93;48.88;102587.63;5102040;28;20083;-59
2022/03/06 08:32:21;;;;;;;18.90;12.10;;;;;;;4.92;48.96;102583.28;5101344;28;20086;-60
2022/03/06 08:34:51;;;;;;;19.17;11.90;;;;;;;4.95;48.64;102591.00;5102229;28;20075;-60
2022/03/06 08:37:19;;;;;;;14.90;10.73;;;;;;;4.92;49.75;102590.44;5096406;28;20083;-60
2022/03/06 08:39:47;;;;;;;18.35;12.10;;;;;;;4.93;49.06;102589.47;5102181;28;20052;-60
2022/03/06 08:42:17;;;;;;;18.23;12.20;;;;;;;4.97;49.39;102582.84;5103810;28;20044;-60
2022/03/06 08:44:45;;;;;;;17.38;10.82;;;;;;;4.95;49.65;102598.16;5096317;28;20059;-60
2022/03/06 08:47:13;;;;;;;18.00;12.25;;;;;;;4.79;49.66;102575.59;5097671;28;20178;-60
2022/03/06 08:49:40;;;;;;;16.90;11.48;;;;;;;4.95;49.57;102599.00;5097307;28;20169;-60
2022/03/06 08:52:08;;;;;;;21.88;11.90;;;;;;;5.00;49.40;102603.88;5096725;28;20040;-60
2022/03/06 08:54:36;;;;;;;16.73;11.73;;;;;;;4.98;48.94;102604.03;5102418;28;20071;-61
2022/03/06 08:57:04;;;;;;;17.15;11.50;;;;;;;5.00;49.68;102604.72;5093947;28;20068;-61
2022/03/06 08:59:33;;;;;;;18.10;11.82;;;;;;;5.05;49.50;102605.16;5102762;28;20073;-60
2022/03/06 09:02:01;;;;;;;17.77;11.65;;;;;;;5.05;48.99;102602.47;5102170;28;20083;-60
2022/03/06 09:04:31;;;;;;;16.88;11.43;;;;;;;5.08;48.88;102601.34;5102565;28;20058;-59
2022/03/06 09:07:00;;;;;;;15.45;11.48;;;;;;;5.11;49.42;102596.56;5101960;28;20044;-60
2022/03/06 09:09:27;;;;;;;15.30;11.20;;;;;;;5.10;49.49;102597.56;5101705;28;20101;-59
2022/03/06 09:11:55;;;;;;;17.00;11.35;;;;;;;5.10;49.34;102604.72;5103014;28;20052;-59
2022/03/06 09:14:23;;;;;;;19.17;10.40;;;;;;;5.14;49.63;102603.44;5098497;28;20230;-59
2022/03/06 09:16:52;;;;;;;17.60;11.98;;;;;;;5.11;49.43;102607.25;5101443;28;20063;-61
2022/03/06 09:19:20;;;;;;;15.57;10.38;;;;;;;5.04;49.60;102600.81;5094000;28;20058;-60
2022/03/06 09:21:47;;;;;;;14.23;10.25;;;;;;;5.11;49.64;102606.41;5101977;28;20056;-60
2022/03/06 09:24:15;;;;;;;17.73;11.10;;;;;;;5.12;49.50;102605.41;5094584;28;20052;-61
2022/03/06 09:26:43;;;;;;;17.77;11.75;;;;;;;5.13;49.69;102607.94;5102721;28;20048;-61
2022/03/06 09:29:11;;;;;;;16.00;10.75;;;;;;;5.16;49.17;102599.66;5097217;28;20044;-61
2022/03/06 09:31:39;;;;;;;16.40;10.63;;;;;;;5.16;49.44;102605.00;5089088;28;20055;-60
2022/03/06 09:34:08;;;;;;;15.23;10.20;;;;;;;5.12;50.26;102611.59;5102277;28;20056;-59
2022/03/06 09:36:45;;;;;;;17.58;11.52;;;;;;;5.11;49.85;102615.25;5102698;28;20063;-59
2022/03/06 09:39:13;;;;;;;15.80;10.43;;;;;;;5.14;50.05;102609.63;5090430;28;20044;-59
2022/03/06 09:41:42;;;;;;;16.52;11.57;;;;;;;5.17;49.45;102604.00;5102498;28;20070;-61
2022/03/06 09:44:11;;;;;;;16.63;10.88;;;;;;;5.21;49.70;102616.03;5089548;28;20068;-59
2022/03/06 09:46:41;;;;;;;16.75;11.15;;;;;;;5.19;49.99;102607.38;5096601;28;20341;-61
2022/03/06 09:49:11;;;;;;;14.25;9.98;;;;;;;5.22;49.77;102612.38;5099711;28;20055;-60
2022/03/06 09:51:41;;;;;;;15.60;11.07;;;;;;;5.19;49.60;102609.19;5098073;28;20080;-60
2022/03/06 09:54:11;;;;;;;14.35;9.90;;;;;;;5.17;49.54;102608.50;5099959;28;20397;-61
2022/03/06 09:56:39;;;;;;;16.25;10.18;;;;;;;5.15;49.89;102597.97;5095068;28;20040;-60
2022/03/06 09:59:06;;;;;;;17.98;10.70;;;;;;;5.19;49.62;102604.69;5102149;28;20055;-59
2022/03/06 10:01:34;;;;;;;13.98;10.25;;;;;;;5.21;49.77;102605.38;5099265;28;20058;-61
2022/03/06 10:04:23;;;;;;;15.27;10.20;;;;;;;5.25;49.94;102600.59;5101843;28;20116;-60
2022/03/06 10:06:59;;;;;;;15.90;9.32;;;;;;;5.23;50.56;102603.41;5099547;28;20147;-60
2022/03/06 10:09:28;;;;;;;14.30;9.82;;;;;;;5.26;49.87;102601.44;5098405;28;20090;-60
2022/03/06 10:11:56;;;;;;;16.08;10.07;;;;;;;5.28;50.25;102602.13;5099675;28;20070;-60
2022/03/06 10:14:38;;;;;;;18.42;10.70;;;;;;;5.32;50.05;102596.38;5101908;28;20051;-60
2022/03/06 10:17:10;;;;;;;15.07;10.57;;;;;;;5.38;50.17;102597.59;5098127;28;20040;-60
2022/03/06 10:19:54;;;;;;;18.17;10.30;;;;;;;5.45;49.96;102607.56;5087411;28;20087;-60
2022/03/06 10:22:23;;;;;;;16.05;11.27;;;;;;;5.44;49.45;102610.38;5101912;28;20059;-60
2022/03/06 10:24:53;;;;;;;16.83;10.25;;;;;;;5.44;49.70;102613.88;5101079;28;20079;-60
2022/03/06 10:27:43;;;;;;;16.90;10.25;;;;;;;5.45;50.41;102606.72;5098029;28;20083;-61
2022/03/06 10:30:33;;;;;;;15.75;10.95;;;;;;;5.47;49.67;102602.91;5101654;28;20052;-60
2022/03/06 10:33:03;;;;;;;16.40;10.27;;;;;;;5.48;49.64;102615.25;5095667;28;20101;-61
2022/03/06 10:35:40;;;;;;;15.10;9.73;;;;;;;5.52;49.33;102610.47;5098397;28;20048;-60
2022/03/06 10:38:20;;;;;;;;;;;;;;;5.60;49.43;102609.75;5101111;28;20055;-60
2022/03/06 10:40:49;;;;;;;15.05;10.02;;;;;;;5.65;49.55;102607.47;5091545;28;20360;-59
2022/03/06 10:43:19;;;;;;;15.10;10.25;;;;;;;5.66;49.72;102610.00;5101546;28;20055;-59
2022/03/06 10:45:48;;;;;;;15.57;10.52;;;;;;;5.64;49.38;102603.13;5098228;28;20059;-61
2022/03/06 10:48:16;;;;;;;13.95;9.60;;;;;;;5.74;49.95;102612.78;5101276;28;20055;-61
2022/03/06 10:50:45;;;;;;;13.75;9.48;;;;;;;5.72;49.82;102614.75;5095726;28;20052;-60
2022/03/06 10:53:23;;;;;;;13.90;9.73;;;;;;;5.74;49.90;102609.28;5094257;28;20094;-60
2022/03/06 10:55:52;;;;;;;15.13;10.02;;;;;;;5.76;49.72;102605.47;5100720;28;20047;-60
2022/03/06 10:58:21;;;;;;;16.33;10.35;;;;;;;5.76;50.04;102604.63;5105454;28;20059;-60
2022/03/06 11:00:49;;;;;;;14.30;9.10;;;;;;;5.73;49.83;102604.94;5105649;28;20063;-60
2022/03/06 11:03:17;;;;;;;16.88;9.82;;;;;;;5.81;49.94;102599.69;5094043;28;20049;-59
2022/03/06 11:05:47;;;;;;;13.93;10.00;;;;;;;5.80;49.82;102606.00;5105419;28;20101;-60
2022/03/06 11:08:15;;;;;;;14.77;9.63;;;;;;;5.81;49.47;102610.38;5104418;28;20504;-60
2022/03/06 11:10:44;;;;;;;16.77;9.07;;;;;;;5.75;49.62;102589.63;5094865;28;20043;-60
2022/03/06 11:13:13;;;;;;;11.70;8.50;;;;;;;5.93;49.51;102603.03;5105179;28;20060;-60
2022/03/06 11:15:41;;;;;;;15.55;10.00;;;;;;;5.97;49.60;102607.09;5096719;28;20436;-60
2022/03/06 11:18:10;;;;;;;15.02;8.98;;;;;;;5.97;49.36;102602.59;5089278;28;20056;-59
2022/03/06 11:20:39;;;;;;;16.35;9.07;;;;;;;6.01;49.68;102592.47;5105329;28;20489;-59
2022/03/06 11:23:18;;;;;;;12.85;9.10;;;;;;;6.07;49.51;102599.88;5097351;28;20123;-60